Terminal Aerodrome Forecast
Issued by NWS

Home | Current Version | Previous Version | Graphics & Text | Print | Product List | Glossary On
Versions: 1 2 3 4 5 6 7 8 9 10 11 12 13 14 15 16 17 18 19 20 21
468
FTUS43 KLSX 161130
TAFSUS
TAF
KSUS 161130Z 1612/1712 VRB03KT 3SM BR SCT002
      TEMPO 1612/1613 1/4SM FG BKN002
     FM161300 VRB03KT P6SM SKC=

USA.gov is the U.S. government's official web portal to all federal, state and local government web resources and services.